Time;durP1;ratioP1;P1;durP2;ratioP2;P2;SDS_P1;SDS_P2;PMS_P1;PMS_P2;Temp;Humidity;BMP_temperature;BMP_pressure;BME280_temperature;BME280_humidity;BME280_pressure;Samples;Min_cycle;Max_cycle;Signal;HPM_P1;HPM_P2
2021/09/09 00:00:30;;;;;;;10.40;9.60;;;;;;;12.75;97.09;95404.34;5040010;28;20215;-70
2021/09/09 00:02:59;;;;;;;12.17;10.83;;;;;;;12.68;97.39;95403.53;5043906;28;20231;-70
2021/09/09 00:05:29;;;;;;;9.73;8.83;;;;;;;12.69;97.45;95409.63;5014672;28;20583;-69
2021/09/09 00:07:58;;;;;;;10.57;9.77;;;;;;;12.70;97.54;95406.78;5040427;28;20226;-70
2021/09/09 00:10:27;;;;;;;11.03;10.20;;;;;;;12.74;97.54;95408.00;5034241;28;20313;-69
2021/09/09 00:12:55;;;;;;;10.60;9.80;;;;;;;12.74;97.53;95412.50;5042817;28;20218;-69
2021/09/09 00:15:24;;;;;;;7.90;7.40;;;;;;;12.73;97.63;95408.22;5014304;28;20235;-69
2021/09/09 00:17:53;;;;;;;11.67;10.77;;;;;;;12.73;97.63;95401.09;5041410;28;20234;-69
2021/09/09 00:20:21;;;;;;;8.67;8.07;;;;;;;12.76;97.71;95400.69;5039991;28;20241;-69
2021/09/09 00:22:51;;;;;;;9.53;8.80;;;;;;;12.76;97.66;95395.38;5043086;28;20587;-70
2021/09/09 00:25:21;;;;;;;8.00;7.47;;;;;;;12.80;97.74;95388.66;5039839;28;20614;-69
2021/09/09 00:27:52;;;;;;;8.73;8.10;;;;;;;12.84;97.45;95390.91;5041986;28;20480;-69
2021/09/09 00:30:21;;;;;;;7.63;7.13;;;;;;;12.80;96.91;95401.06;5041830;28;20226;-69
2021/09/09 00:32:49;;;;;;;9.10;8.40;;;;;;;12.79;96.86;95402.09;5041797;28;20211;-69
2021/09/09 00:35:17;;;;;;;10.27;9.20;;;;;;;12.79;96.69;95397.59;5041631;28;20222;-69
2021/09/09 00:37:46;;;;;;;9.40;8.53;;;;;;;12.75;96.31;95401.69;5020346;28;20229;-68
2021/09/09 00:40:15;;;;;;;9.40;8.57;;;;;;;12.74;96.33;95400.06;5041425;28;20222;-69
2021/09/09 00:42:44;;;;;;;9.30;8.60;;;;;;;12.68;96.64;95408.81;5039973;28;20284;-69
2021/09/09 00:45:12;;;;;;;12.60;11.43;;;;;;;12.69;96.67;95405.16;5031977;28;20223;-69
2021/09/09 00:47:41;;;;;;;9.60;8.80;;;;;;;12.66;96.96;95400.28;5038453;28;20584;-68
2021/09/09 00:50:11;;;;;;;10.80;9.63;;;;;;;12.59;97.14;95394.16;5035777;28;20254;-70
2021/09/09 00:52:41;;;;;;;11.80;10.80;;;;;;;12.51;97.15;95402.28;5039928;28;20672;-69
2021/09/09 00:55:10;;;;;;;10.53;9.53;;;;;;;12.47;97.32;95406.34;5042532;28;20281;-70
2021/09/09 00:57:39;;;;;;;11.10;10.17;;;;;;;12.41;97.39;95396.56;5039391;28;20793;-70
2021/09/09 01:00:09;;;;;;;10.53;9.73;;;;;;;12.41;97.35;95401.84;5035489;28;20255;-70
2021/09/09 01:02:37;;;;;;;10.67;9.53;;;;;;;12.41;97.38;95401.84;5037459;28;20897;-70
2021/09/09 01:05:07;;;;;;;14.20;11.13;;;;;;;12.36;97.49;95399.03;5041457;28;20429;-69
2021/09/09 01:07:35;;;;;;;12.00;11.00;;;;;;;12.29;97.47;95387.59;5042170;28;20304;-69
2021/09/09 01:10:03;;;;;;;11.87;10.77;;;;;;;12.27;97.37;95393.09;5022048;28;20273;-69
2021/09/09 01:12:32;;;;;;;13.00;11.47;;;;;;;12.23;97.50;95395.31;5025831;28;20226;-70
2021/09/09 01:15:01;;;;;;;9.47;8.77;;;;;;;12.24;97.32;95391.66;5036234;28;20306;-69
2021/09/09 01:17:30;;;;;;;11.57;9.43;;;;;;;12.28;97.13;95407.13;5042162;28;20280;-69
2021/09/09 01:19:58;;;;;;;11.67;10.73;;;;;;;12.25;97.05;95392.47;5037208;28;20904;-69
2021/09/09 01:22:25;;;;;;;9.17;8.47;;;;;;;12.27;97.15;95394.94;5041019;28;20277;-69
2021/09/09 01:24:55;;;;;;;10.57;9.53;;;;;;;12.26;97.39;95393.31;5038959;28;20519;-69
2021/09/09 01:27:24;;;;;;;8.33;7.53;;;;;;;12.28;97.89;95391.28;5040867;28;20223;-69
2021/09/09 01:29:51;;;;;;;12.70;11.50;;;;;;;12.30;97.94;95397.16;5039855;28;20710;-69
2021/09/09 01:32:20;;;;;;;11.13;10.33;;;;;;;12.21;98.21;95397.34;5047921;28;20219;-69
2021/09/09 01:34:49;;;;;;;12.03;11.10;;;;;;;12.21;98.15;95401.81;5027097;28;20638;-69
2021/09/09 01:37:17;;;;;;;9.97;9.13;;;;;;;12.20;98.12;95406.31;5024144;28;20229;-69
2021/09/09 01:39:47;;;;;;;10.73;9.83;;;;;;;12.17;98.13;95400.59;5043618;28;20456;-69
2021/09/09 01:42:17;;;;;;;9.37;8.57;;;;;;;12.19;98.02;95401.22;5042326;28;20226;-69
2021/09/09 01:44:45;;;;;;;10.50;9.57;;;;;;;12.19;97.99;95407.31;5039960;28;20229;-69
2021/09/09 01:47:12;;;;;;;9.37;8.43;;;;;;;12.18;98.36;95405.69;5040931;28;20320;-69
2021/09/09 01:49:41;;;;;;;10.50;9.80;;;;;;;12.12;98.28;95409.13;5042448;28;20238;-69
2021/09/09 01:52:09;;;;;;;13.57;12.40;;;;;;;12.08;98.41;95405.28;5045949;28;20688;-70
2021/09/09 01:54:37;;;;;;;11.67;10.67;;;;;;;12.06;98.45;95404.63;5039747;28;20509;-69
2021/09/09 01:57:05;;;;;;;10.00;9.30;;;;;;;12.08;98.41;95402.63;5042417;28;20277;-69
2021/09/09 01:59:35;;;;;;;9.43;8.73;;;;;;;12.09;98.60;95404.25;5023642;28;20277;-69
2021/09/09 02:02:04;;;;;;;10.57;9.77;;;;;;;12.06;98.71;95399.34;5036660;28;20227;-69
2021/09/09 02:04:32;;;;;;;8.90;8.30;;;;;;;12.07;98.82;95395.69;5033996;28;20237;-69
2021/09/09 02:07:00;;;;;;;15.07;9.90;;;;;;;12.21;99.42;95396.53;5035248;28;20791;-69
2021/09/09 02:09:28;;;;;;;11.23;10.37;;;;;;;12.39;100.00;95398.59;5046418;28;20297;-69
2021/09/09 02:11:56;;;;;;;10.07;9.40;;;;;;;12.52;100.00;95398.63;5042189;28;20488;-69
2021/09/09 02:14:24;;;;;;;10.20;9.43;;;;;;;12.56;100.00;95391.91;5038898;28;20314;-70
2021/09/09 02:16:53;;;;;;;9.00;8.30;;;;;;;12.56;100.00;95397.22;5032828;28;20223;-69
2021/09/09 02:19:22;;;;;;;8.50;7.73;;;;;;;12.55;99.75;95392.94;5027592;28;20242;-69
2021/09/09 02:21:49;;;;;;;10.70;9.57;;;;;;;12.52;99.76;95388.03;5040996;28;20224;-69
2021/09/09 02:24:18;;;;;;;8.33;7.80;;;;;;;12.50;99.48;95390.06;5020422;28;20280;-69
2021/09/09 02:26:45;;;;;;;8.60;8.00;;;;;;;12.48;99.42;95392.09;5044856;28;20229;-69
2021/09/09 02:29:14;;;;;;;10.13;9.33;;;;;;;12.43;99.32;95395.34;5044895;28;20305;-70
2021/09/09 02:31:42;;;;;;;8.10;7.50;;;;;;;12.42;99.44;95393.72;5027855;28;20306;-70
2021/09/09 02:34:12;;;;;;;7.53;6.93;;;;;;;12.40;99.21;95400.22;5039440;28;20311;-70
2021/09/09 02:36:40;;;;;;;8.83;8.13;;;;;;;12.38;99.25;95397.78;5033092;28;20223;-70
2021/09/09 02:39:08;;;;;;;9.53;8.80;;;;;;;12.37;99.07;95395.34;5019017;28;20216;-69
2021/09/09 02:41:36;;;;;;;9.33;8.60;;;;;;;12.37;99.01;95395.34;5042359;28;20292;-69
2021/09/09 02:44:04;;;;;;;7.87;7.37;;;;;;;12.36;99.14;95393.72;5034896;28;20225;-69
2021/09/09 02:46:33;;;;;;;7.80;7.30;;;;;;;12.34;99.09;95391.25;5038888;28;20231;-69
2021/09/09 02:49:01;;;;;;;7.90;7.30;;;;;;;12.36;99.20;95391.09;5044330;28;20222;-70
2021/09/09 02:51:30;;;;;;;7.63;7.13;;;;;;;12.35;99.00;95392.09;5039650;28;20603;-70
2021/09/09 02:53:58;;;;;;;8.43;7.53;;;;;;;12.32;98.98;95393.28;5044987;28;20768;-69
2021/09/09 02:56:27;;;;;;;7.10;6.60;;;;;;;12.31;98.82;95385.56;5040351;28;20219;-70
2021/09/09 02:58:57;;;;;;;7.57;7.07;;;;;;;12.31;98.71;95390.84;5043702;28;20227;-69
2021/09/09 03:01:26;;;;;;;7.80;7.20;;;;;;;12.29;98.50;95387.59;5043054;28;20258;-69
2021/09/09 03:03:54;;;;;;;6.90;6.40;;;;;;;12.29;98.72;95384.97;5043330;28;20219;-69
2021/09/09 03:06:22;;;;;;;7.93;7.33;;;;;;;12.27;98.66;95384.34;5038235;28;20297;-70
2021/09/09 03:08:52;;;;;;;7.77;7.37;;;;;;;12.29;98.63;95387.59;5045563;28;20581;-69
2021/09/09 03:11:20;;;;;;;8.80;8.10;;;;;;;12.30;98.58;95389.22;5025788;28;20306;-70
2021/09/09 03:13:49;;;;;;;13.00;8.50;;;;;;;12.31;98.42;95374.97;5044355;28;20292;-69
2021/09/09 03:16:16;;;;;;;7.70;7.13;;;;;;;12.29;98.50;95377.03;5037837;28;20239;-68
2021/09/09 03:18:45;;;;;;;7.47;6.93;;;;;;;12.26;98.43;95377.44;5044834;28;20223;-69
2021/09/09 03:21:13;;;;;;;6.50;6.10;;;;;;;12.19;98.89;95372.94;5041747;28;20249;-69
2021/09/09 03:23:41;;;;;;;6.87;6.47;;;;;;;12.16;98.52;95370.69;5038599;28;20651;-69
2021/09/09 03:26:10;;;;;;;8.57;7.73;;;;;;;12.15;98.43;95376.16;5043378;28;20215;-68
2021/09/09 03:28:39;;;;;;;7.87;7.33;;;;;;;12.04;98.55;95374.94;5035805;28;20250;-69
2021/09/09 03:31:07;;;;;;;7.40;6.90;;;;;;;11.95;98.56;95376.13;5029364;28;20222;-69
2021/09/09 03:33:35;;;;;;;7.47;6.97;;;;;;;11.88;98.80;95370.00;5041085;28;20242;-69
2021/09/09 03:36:03;;;;;;;7.37;6.97;;;;;;;11.78;98.84;95367.69;5043167;28;20247;-71
2021/09/09 03:38:31;;;;;;;7.03;6.47;;;;;;;11.77;98.94;95368.72;5026152;28;20215;-69
2021/09/09 03:40:59;;;;;;;8.17;7.57;;;;;;;11.81;99.19;95379.75;5025075;28;20219;-69
2021/09/09 03:43:28;;;;;;;6.23;5.83;;;;;;;11.83;98.69;95372.44;5040781;28;20326;-69
2021/09/09 03:45:57;;;;;;;7.20;6.60;;;;;;;11.79;99.02;95371.16;5015770;28;20219;-69
2021/09/09 03:48:25;;;;;;;7.53;6.83;;;;;;;11.76;99.17;95371.56;5042969;28;20277;-69
2021/09/09 03:50:53;;;;;;;7.70;7.00;;;;;;;11.73;99.31;95369.31;5036270;28;20247;-69
2021/09/09 03:53:21;;;;;;;6.80;6.30;;;;;;;11.72;99.27;95365.84;5044270;28;20215;-69
2021/09/09 03:55:49;;;;;;;5.63;5.23;;;;;;;11.69;99.18;95371.53;5021983;28;20242;-69
2021/09/09 03:58:18;;;;;;;7.40;6.83;;;;;;;11.67;99.35;95369.06;5036522;28;20459;-69
2021/09/09 04:00:47;;;;;;;6.77;6.27;;;;;;;11.68;99.02;95373.34;5040258;28;20223;-69
2021/09/09 04:03:15;;;;;;;7.00;6.60;;;;;;;11.68;99.15;95365.41;5041271;28;20231;-69
2021/09/09 04:05:44;;;;;;;6.70;6.23;;;;;;;11.71;99.42;95371.34;5041014;28;20226;-69
2021/09/09 04:08:12;;;;;;;7.07;6.47;;;;;;;11.73;99.09;95378.06;5039148;28;20219;-69
2021/09/09 04:10:41;;;;;;;6.27;5.83;;;;;;;11.76;99.18;95377.66;5033151;28;20573;-69
2021/09/09 04:13:09;;;;;;;7.37;6.83;;;;;;;11.77;99.30;95374.00;5042585;28;20247;-69
2021/09/09 04:15:39;;;;;;;6.33;5.93;;;;;;;11.81;99.30;95375.28;5039933;28;20662;-70
2021/09/09 04:18:08;;;;;;;7.47;6.77;;;;;;;11.81;99.14;95375.28;5039803;28;20215;-69
2021/09/09 04:20:36;;;;;;;8.53;7.90;;;;;;;11.82;99.37;95376.09;5018713;28;20250;-70
2021/09/09 04:23:04;;;;;;;6.43;6.03;;;;;;;11.83;99.54;95381.19;5042833;28;20318;-69
2021/09/09 04:25:33;;;;;;;9.40;8.60;;;;;;;11.89;99.53;95384.88;5035549;28;20228;-70
2021/09/09 04:28:01;;;;;;;7.93;7.17;;;;;;;11.93;99.64;95383.44;5036997;28;20766;-66
2021/09/09 04:30:29;;;;;;;7.73;7.17;;;;;;;11.95;99.73;95386.69;5042190;28;20311;-67
2021/09/09 04:32:57;;;;;;;8.63;7.93;;;;;;;11.99;99.82;95387.94;5039892;28;20222;-67
2021/09/09 04:35:26;;;;;;;9.03;8.13;;;;;;;11.97;99.62;95384.66;5035121;28;20223;-66
2021/09/09 04:37:55;;;;;;;8.30;7.63;;;;;;;11.99;99.80;95381.84;5035556;28;20262;-67
2021/09/09 04:40:22;;;;;;;7.67;6.93;;;;;;;12.01;99.70;95385.91;5042016;28;20219;-67
2021/09/09 04:42:51;;;;;;;7.20;6.70;;;;;;;12.06;99.81;95387.94;5024945;28;20250;-67
2021/09/09 04:45:19;;;;;;;7.23;6.73;;;;;;;12.11;99.75;95378.41;5042734;28;20737;-67
2021/09/09 04:47:48;;;;;;;6.33;5.83;;;;;;;12.16;99.93;95383.94;5041235;28;20221;-67
2021/09/09 04:50:16;;;;;;;6.77;6.37;;;;;;;12.22;99.89;95383.09;5034728;28;20648;-67
2021/09/09 04:52:45;;;;;;;6.57;6.17;;;;;;;12.27;99.80;95382.50;5039785;28;20355;-67
2021/09/09 04:55:13;;;;;;;7.37;6.77;;;;;;;12.32;99.73;95379.25;5042750;28;20222;-66
2021/09/09 04:57:40;;;;;;;6.93;6.47;;;;;;;12.35;99.63;95381.50;5037116;28;20679;-66
2021/09/09 05:00:10;;;;;;;6.87;6.43;;;;;;;12.40;99.40;95377.22;5041366;28;20281;-67
2021/09/09 05:02:38;;;;;;;6.63;6.23;;;;;;;12.45;99.26;95381.94;5042126;28;20239;-67
2021/09/09 05:05:08;;;;;;;5.13;4.83;;;;;;;12.51;99.06;95381.09;5033273;28;20231;-67
2021/09/09 05:07:37;;;;;;;6.60;6.10;;;;;;;12.57;98.99;95379.50;5032992;28;20668;-67
2021/09/09 05:10:07;;;;;;;6.70;6.23;;;;;;;12.63;98.66;95379.50;5024676;28;20313;-67
2021/09/09 05:12:37;;;;;;;6.67;6.17;;;;;;;12.68;98.58;95379.69;5038143;28;20219;-68
2021/09/09 05:15:06;;;;;;;6.87;6.27;;;;;;;12.67;98.48;95386.00;5021421;28;20222;-67
2021/09/09 05:17:34;;;;;;;8.43;7.60;;;;;;;12.68;98.27;95382.34;5038291;28;20484;-66
2021/09/09 05:20:02;;;;;;;9.43;8.73;;;;;;;12.70;97.83;95385.59;5037038;28;20298;-67
2021/09/09 05:22:32;;;;;;;6.87;6.27;;;;;;;12.72;97.88;95378.28;5037045;28;20284;-67
2021/09/09 05:25:01;;;;;;;7.43;6.93;;;;;;;12.73;97.77;95379.91;5038631;28;20219;-68
2021/09/09 05:27:30;;;;;;;7.50;6.80;;;;;;;12.73;98.26;95379.09;5035722;28;20711;-67
2021/09/09 05:29:58;;;;;;;7.80;7.03;;;;;;;12.65;97.65;95387.25;5037496;28;20231;-67
2021/09/09 05:32:26;;;;;;;7.53;6.97;;;;;;;12.71;97.66;95387.25;5039284;28;20223;-67
2021/09/09 05:34:54;;;;;;;7.37;6.67;;;;;;;12.73;97.56;95385.22;5037714;28;20230;-68
2021/09/09 05:37:23;;;;;;;7.20;6.70;;;;;;;12.74;97.40;95380.72;5042389;28;20306;-67
2021/09/09 05:39:50;;;;;;;8.43;7.83;;;;;;;12.77;97.14;95380.31;5023264;28;20215;-67
2021/09/09 05:42:19;;;;;;;7.40;6.63;;;;;;;12.85;96.93;95387.22;5038152;28;20747;-67
2021/09/09 05:44:48;;;;;;;8.00;7.43;;;;;;;12.93;97.04;95376.44;5038349;28;20280;-67
2021/09/09 05:47:16;;;;;;;7.67;7.23;;;;;;;13.05;96.82;95382.72;5038982;28;20215;-67
2021/09/09 05:49:45;;;;;;;7.07;6.57;;;;;;;13.10;97.00;95385.59;5037098;28;20663;-68
2021/09/09 05:52:13;;;;;;;7.00;6.60;;;;;;;13.22;97.04;95385.78;5040375;28;20301;-67
2021/09/09 05:54:41;;;;;;;6.13;5.67;;;;;;;13.31;96.56;95381.91;5039459;28;20314;-68
2021/09/09 05:57:09;;;;;;;8.33;7.73;;;;;;;13.36;96.46;95374.97;5039397;28;20220;-66
2021/09/09 05:59:37;;;;;;;7.27;6.63;;;;;;;13.43;96.47;95382.06;5018200;28;20312;-67
2021/09/09 06:02:13;;;;;;;8.87;8.27;;;;;;;13.45;96.67;95377.41;5042227;28;20243;-66
2021/09/09 06:04:44;;;;;;;7.30;6.77;;;;;;;13.54;96.50;95381.44;5034336;28;20223;-66
2021/09/09 06:07:12;;;;;;;7.53;6.93;;;;;;;13.66;96.51;95379.75;5039372;28;20218;-67
2021/09/09 06:09:41;;;;;;;7.10;6.67;;;;;;;13.74;96.26;95379.53;5036193;28;20226;-67
2021/09/09 06:12:09;;;;;;;6.60;6.20;;;;;;;13.86;96.57;95375.19;5045821;28;20211;-67
2021/09/09 06:14:37;;;;;;;6.43;6.00;;;;;;;14.03;96.22;95386.13;5044423;28;20219;-67
2021/09/09 06:17:07;;;;;;;6.83;6.43;;;;;;;14.14;96.01;95387.31;5046452;28;20542;-67
2021/09/09 06:19:35;;;;;;;10.30;7.23;;;;;;;14.29;95.83;95385.19;5041382;28;20281;-66
2021/09/09 06:22:04;;;;;;;8.73;6.83;;;;;;;14.43;95.63;95384.06;5040821;28;20319;-65
2021/09/09 06:24:31;;;;;;;7.10;6.60;;;;;;;14.58;95.11;95383.78;5043864;28;20231;-67
2021/09/09 06:26:59;;;;;;;7.77;7.27;;;;;;;14.74;94.94;95385.94;5043658;28;20215;-67
2021/09/09 06:29:27;;;;;;;6.30;5.93;;;;;;;14.91;94.79;95388.06;5043156;28;20738;-67
2021/09/09 06:31:56;;;;;;;6.10;5.67;;;;;;;15.11;94.33;95387.88;5037268;28;20315;-67
2021/09/09 06:34:25;;;;;;;6.97;6.47;;;;;;;15.31;94.00;95389.31;5045781;28;20310;-68
2021/09/09 06:36:53;;;;;;;6.83;6.43;;;;;;;15.47;93.59;95384.44;5037957;28;20230;-67
2021/09/09 06:39:21;;;;;;;6.43;5.93;;;;;;;15.66;93.46;95382.63;5045866;28;20242;-66
2021/09/09 06:41:49;;;;;;;7.77;5.93;;;;;;;15.87;93.13;95390.16;5041308;28;20794;-67
2021/09/09 06:44:19;;;;;;;6.03;5.63;;;;;;;16.08;92.69;95384.34;5027494;28;20257;-67
2021/09/09 06:46:47;;;;;;;5.67;5.27;;;;;;;16.29;91.98;95384.91;5042536;28;20305;-67
2021/09/09 06:49:14;;;;;;;6.23;5.80;;;;;;;16.46;90.51;95385.91;5043554;28;20213;-67
2021/09/09 06:51:44;;;;;;;7.63;6.13;;;;;;;16.61;89.09;95382.81;5039133;28;20617;-67
2021/09/09 06:54:12;;;;;;;6.00;5.47;;;;;;;16.78;87.43;95387.28;5045211;28;20426;-66
2021/09/09 06:56:40;;;;;;;6.27;5.77;;;;;;;16.96;86.29;95383.72;5039060;28;20265;-68
2021/09/09 06:59:08;;;;;;;5.93;5.63;;;;;;;17.13;84.91;95386.53;5036015;28;20234;-67
2021/09/09 07:01:37;;;;;;;4.67;4.47;;;;;;;17.32;84.33;95389.88;5024033;28;20224;-67
2021/09/09 07:04:05;;;;;;;5.20;4.93;;;;;;;17.50;82.57;95391.63;5034941;28;20713;-68
2021/09/09 07:06:33;;;;;;;5.30;4.93;;;;;;;17.67;81.94;95397.88;5044500;28;20269;-67
2021/09/09 07:09:03;;;;;;;5.33;5.03;;;;;;;17.83;81.78;95391.84;5038365;28;20226;-69
2021/09/09 07:11:31;;;;;;;13.07;5.43;;;;;;;18.01;80.87;95396.19;5045999;28;20766;-69
2021/09/09 07:13:59;;;;;;;7.27;5.63;;;;;;;18.22;80.92;95399.28;5038677;28;20306;-70
2021/09/09 07:16:27;;;;;;;4.43;4.23;;;;;;;18.45;79.50;95399.16;5047123;28;20633;-69
2021/09/09 07:18:55;;;;;;;5.00;4.50;;;;;;;18.67;78.69;95407.34;5044815;28;20288;-70
2021/09/09 07:21:23;;;;;;;6.93;6.40;;;;;;;18.85;78.28;95403.66;5040445;28;20703;-70
2021/09/09 07:23:51;;;;;;;4.33;4.10;;;;;;;19.11;76.97;95395.00;5041007;28;20470;-69
2021/09/09 07:26:20;;;;;;;4.00;3.80;;;;;;;19.40;77.23;95398.38;5043025;28;20258;-69
2021/09/09 07:28:49;;;;;;;5.33;3.57;;;;;;;19.71;76.93;95399.66;5041328;28;20261;-70
2021/09/09 07:31:17;;;;;;;4.83;4.53;;;;;;;19.82;77.63;95408.63;5045229;28;20215;-71
2021/09/09 07:33:45;;;;;;;4.53;4.23;;;;;;;19.85;74.82;95408.13;5044717;28;20539;-70
2021/09/09 07:36:13;;;;;;;4.83;4.60;;;;;;;19.91;73.49;95404.44;5042423;28;20489;-70
2021/09/09 07:38:41;;;;;;;5.77;5.37;;;;;;;20.06;74.58;95412.69;5041481;28;20309;-70
2021/09/09 07:41:08;;;;;;;19.23;5.80;;;;;;;20.25;71.72;95407.00;5044830;28;20225;-70
2021/09/09 07:43:39;;;;;;;4.53;4.10;;;;;;;20.40;70.76;95405.31;5044946;28;20509;-70
2021/09/09 07:46:07;;;;;;;4.83;4.53;;;;;;;20.45;71.11;95408.06;5042205;28;20814;-70
2021/09/09 07:48:35;;;;;;;3.70;3.60;;;;;;;20.52;70.80;95417.81;5043675;28;20238;-71
2021/09/09 07:51:03;;;;;;;5.20;4.77;;;;;;;20.34;69.87;95418.91;5037039;28;20294;-70
2021/09/09 07:53:32;;;;;;;4.93;4.57;;;;;;;20.50;66.94;95418.06;5044627;28;20262;-70
2021/09/09 07:56:00;;;;;;;5.87;4.67;;;;;;;20.84;67.23;95424.00;5045056;28;20306;-70
2021/09/09 07:58:29;;;;;;;4.53;4.33;;;;;;;20.97;66.40;95425.50;5041310;28;20242;-70
2021/09/09 08:00:58;;;;;;;6.77;4.80;;;;;;;20.85;67.57;95427.53;5043016;28;20326;-70
2021/09/09 08:03:26;;;;;;;3.83;3.63;;;;;;;21.12;65.21;95427.47;5045747;28;20704;-70
2021/09/09 08:05:54;;;;;;;4.20;3.90;;;;;;;21.01;67.58;95429.28;5036208;28;20246;-70
2021/09/09 08:08:23;;;;;;;4.50;4.20;;;;;;;21.15;68.19;95427.78;5023324;28;20261;-70
2021/09/09 08:10:50;;;;;;;3.70;3.50;;;;;;;21.31;66.58;95431.44;5039203;28;20433;-70
2021/09/09 08:13:18;;;;;;;4.27;4.00;;;;;;;21.20;63.19;95433.19;5041850;28;20292;-69
2021/09/09 08:15:47;;;;;;;5.27;4.83;;;;;;;21.05;63.20;95441.13;5040223;28;20219;-71
2021/09/09 08:18:16;;;;;;;3.40;3.20;;;;;;;21.20;65.42;95435.88;5032111;28;20212;-70
2021/09/09 08:20:44;;;;;;;3.20;3.00;;;;;;;21.14;65.91;95446.84;5040423;28;20641;-70
2021/09/09 08:23:13;;;;;;;3.97;3.77;;;;;;;20.84;65.54;95439.31;5037040;28;20306;-70
2021/09/09 08:25:41;;;;;;;4.03;3.83;;;;;;;20.88;67.16;95437.75;5041056;28;20279;-70
2021/09/09 08:28:10;;;;;;;4.00;3.80;;;;;;;20.78;66.01;95433.09;5033986;28;20225;-70
2021/09/09 08:30:38;;;;;;;6.33;5.33;;;;;;;20.69;67.26;95446.16;5043825;28;20427;-70
2021/09/09 08:33:06;;;;;;;4.20;4.00;;;;;;;20.57;68.89;95445.47;5024187;28;20246;-70
2021/09/09 08:35:36;;;;;;;4.83;4.53;;;;;;;20.54;68.68;95448.66;5043169;28;20310;-70
2021/09/09 08:38:04;;;;;;;9.27;4.33;;;;;;;20.38;67.91;95449.50;5035331;28;20241;-70
2021/09/09 08:40:36;;;;;;;4.80;4.40;;;;;;;20.26;69.28;95451.50;5047083;28;20309;-71
2021/09/09 08:43:05;;;;;;;3.60;3.40;;;;;;;20.18;70.64;95456.22;5041397;28;20237;-70
2021/09/09 08:45:33;;;;;;;3.27;3.17;;;;;;;20.12;70.21;95451.88;5042469;28;20526;-70
2021/09/09 08:48:03;;;;;;;5.23;4.87;;;;;;;20.01;71.11;95460.03;5042409;28;20225;-70
2021/09/09 08:50:32;;;;;;;4.20;3.90;;;;;;;19.99;70.85;95462.94;5036172;28;20278;-70
2021/09/09 08:53:03;;;;;;;2.93;2.73;;;;;;;20.02;71.32;95457.09;5042899;28;20904;-70
2021/09/09 08:55:31;;;;;;;4.23;3.90;;;;;;;20.10;71.37;95470.06;5043588;28;20354;-70
2021/09/09 08:58:02;;;;;;;3.73;3.50;;;;;;;20.57;71.09;95468.78;5042095;28;20214;-71
2021/09/09 09:00:30;;;;;;;4.77;4.47;;;;;;;20.87;70.39;95465.63;5039531;28;20261;-70
2021/09/09 09:02:59;;;;;;;4.67;4.37;;;;;;;20.88;69.64;95464.56;5041665;28;20624;-70
2021/09/09 09:05:28;;;;;;;4.47;4.17;;;;;;;21.13;69.88;95467.50;5041986;28;20846;-70
2021/09/09 09:07:57;;;;;;;4.17;3.87;;;;;;;21.32;69.96;95464.47;5043146;28;20468;-71
2021/09/09 09:10:28;;;;;;;4.00;3.80;;;;;;;21.55;70.30;95464.91;5024002;28;20274;-71
2021/09/09 09:12:56;;;;;;;4.50;4.20;;;;;;;21.61;69.24;95471.13;5043884;28;20242;-70
2021/09/09 09:15:27;;;;;;;3.50;3.40;;;;;;;21.69;69.61;95470.66;5040528;28;20229;-70
2021/09/09 09:18:01;;;;;;;5.37;4.07;;;;;;;21.82;68.25;95462.16;5039136;28;20258;-70
2021/09/09 09:20:39;;;;;;;3.70;3.50;;;;;;;22.03;68.13;95464.94;5037893;28;20265;-70
2021/09/09 09:23:26;;;;;;;4.57;3.50;;;;;;;22.22;68.41;95460.81;5038709;28;20716;-70
2021/09/09 09:25:59;;;;;;;4.93;4.63;;;;;;;22.35;67.81;95454.94;5041018;28;20249;-70
2021/09/09 09:28:42;;;;;;;5.00;4.47;;;;;;;22.74;67.22;95449.13;5037364;28;20215;-70
2021/09/09 09:31:12;;;;;;;4.50;3.83;;;;;;;23.04;64.72;95452.97;5036007;28;20219;-70
2021/09/09 09:33:42;;;;;;;8.43;4.67;;;;;;;23.53;63.78;95445.22;5040710;28;20222;-70
2021/09/09 09:36:15;;;;;;;3.80;3.50;;;;;;;24.19;60.85;95457.78;5041645;28;20273;-70
2021/09/09 09:38:45;;;;;;;3.03;2.90;;;;;;;24.52;59.88;95451.78;5042656;28;20223;-70
2021/09/09 09:41:18;;;;;;;4.23;3.97;;;;;;;24.95;60.12;95460.16;5043435;28;20214;-70
2021/09/09 09:43:52;;;;;;;3.40;3.30;;;;;;;25.32;60.28;95456.16;5040941;28;20320;-71
2021/09/09 09:46:25;;;;;;;4.33;3.47;;;;;;;25.60;59.50;95439.19;5042421;28;20299;-70
2021/09/09 09:48:53;;;;;;;4.32;3.92;;;;;;;25.33;59.08;95449.66;5026788;28;20226;-71
2021/09/09 09:51:41;;;;;;;5.47;4.45;;;;;;;24.93;58.58;95454.25;5043962;28;20242;-70
2021/09/09 09:54:11;;;;;;;4.47;4.17;;;;;;;24.96;58.28;95445.56;5047367;28;20706;-71
2021/09/09 09:56:42;;;;;;;4.30;3.80;;;;;;;24.97;58.40;95452.63;5020365;28;20248;-71
2021/09/09 09:59:10;;;;;;;4.38;3.97;;;;;;;24.99;58.59;95449.63;5047117;28;20222;-70
2021/09/09 10:01:38;;;;;;;4.47;4.27;;;;;;;24.99;58.38;95445.03;5044828;28;20404;-70
2021/09/09 10:04:08;;;;;;;4.20;3.80;;;;;;;24.73;58.03;95440.88;5043436;28;20226;-70
2021/09/09 10:06:40;;;;;;;3.38;3.17;;;;;;;25.68;59.53;95449.38;5043102;28;20247;-70
2021/09/09 10:09:11;;;;;;;4.45;4.25;;;;;;;26.35;57.03;95447.66;5033553;28;20243;-71
2021/09/09 10:11:40;;;;;;;3.70;3.30;;;;;;;26.56;54.68;95440.09;5035810;28;20570;-70
2021/09/09 10:14:15;;;;;;;4.47;4.25;;;;;;;26.43;56.54;95440.81;5041007;28;20604;-70
2021/09/09 10:16:44;;;;;;;3.58;3.35;;;;;;;26.78;55.42;95447.66;5038027;28;20276;-70
2021/09/09 10:19:13;;;;;;;5.00;4.32;;;;;;;27.18;54.48;95446.31;5045609;28;20227;-70
2021/09/09 10:21:46;;;;;;;3.15;2.95;;;;;;;27.63;53.30;95440.47;5041349;28;20243;-71
2021/09/09 10:24:18;;;;;;;3.50;3.28;;;;;;;27.26;52.47;95436.72;5029608;28;20780;-72
2021/09/09 10:26:48;;;;;;;2.95;2.75;;;;;;;27.01;52.94;95439.78;5041982;28;20945;-70
2021/09/09 10:29:45;;;;;;;3.58;3.28;;;;;;;26.62;54.04;95438.16;5038043;28;20674;-71
2021/09/09 10:32:49;;;;;;;3.83;3.63;;;;;;;26.17;55.27;95442.19;5040391;28;20294;-70
2021/09/09 10:35:30;;;;;;;8.25;4.00;;;;;;;25.78;57.09;95451.22;5037727;28;20254;-70
2021/09/09 10:38:20;;;;;;;3.25;2.72;;;;;;;25.60;55.84;95444.59;5044261;28;20306;-71
2021/09/09 10:40:51;;;;;;;3.53;3.33;;;;;;;26.22;56.31;95448.31;5044080;28;20657;-70
2021/09/09 10:43:46;;;;;;;3.65;3.35;;;;;;;26.20;55.12;95445.09;5040908;28;20333;-70
2021/09/09 10:46:16;;;;;;;3.95;3.75;;;;;;;25.98;56.32;95451.03;5044188;28;20306;-71
2021/09/09 10:48:46;;;;;;;2.88;2.78;;;;;;;25.79;56.89;95447.44;5041288;28;20225;-70
2021/09/09 10:51:19;;;;;;;7.00;3.80;;;;;;;25.19;56.84;95450.31;5038537;28;20792;-70
2021/09/09 10:53:55;;;;;;;3.90;3.60;;;;;;;24.89;58.45;95455.91;5042317;28;20242;-70
2021/09/09 10:56:25;;;;;;;7.93;3.72;;;;;;;24.45;59.18;95450.44;5042943;28;20623;-70
2021/09/09 10:59:14;;;;;;;4.28;3.97;;;;;;;24.08;60.66;95463.22;5039245;28;20239;-70
2021/09/09 11:01:45;;;;;;;4.05;3.75;;;;;;;23.89;60.99;95459.47;5033219;28;20305;-70
2021/09/09 11:04:31;;;;;;;3.55;3.35;;;;;;;23.81;60.88;95457.34;5041796;28;20227;-71
2021/09/09 11:07:01;;;;;;;4.13;3.90;;;;;;;23.80;62.09;95461.13;5042362;28;20250;-70
2021/09/09 11:09:29;;;;;;;3.80;3.60;;;;;;;23.67;60.92;95465.16;5041742;28;20211;-70
2021/09/09 11:12:02;;;;;;;3.90;3.53;;;;;;;23.36;61.30;95458.16;5045719;28;20597;-70
2021/09/09 11:14:33;;;;;;;3.43;3.33;;;;;;;23.38;61.66;95448.72;5037800;28;20264;-70
2021/09/09 11:17:01;;;;;;;3.30;3.10;;;;;;;23.07;61.82;95452.47;5040102;28;20294;-69
2021/09/09 11:19:30;;;;;;;5.20;4.70;;;;;;;23.00;62.35;95463.50;5042610;28;20246;-70
2021/09/09 11:22:04;;;;;;;5.80;4.10;;;;;;;22.81;63.81;95465.84;5042420;28;20650;-69
2021/09/09 11:24:36;;;;;;;4.60;4.20;;;;;;;22.69;65.51;95467.97;5037189;28;20748;-70
2021/09/09 11:27:13;;;;;;;3.83;3.63;;;;;;;22.65;65.17;95472.25;5037881;28;20570;-70
2021/09/09 11:29:42;;;;;;;5.03;3.67;;;;;;;22.59;64.70;95473.31;5025814;28;20266;-70
2021/09/09 11:32:14;;;;;;;3.70;3.50;;;;;;;22.69;65.25;95459.91;5041851;28;20238;-70
2021/09/09 11:34:42;;;;;;;3.83;3.63;;;;;;;22.74;64.09;95464.47;5044900;28;20250;-70
2021/09/09 11:37:11;;;;;;;4.17;3.97;;;;;;;22.79;63.50;95468.00;5037645;28;20215;-70
2021/09/09 11:39:39;;;;;;;11.70;4.53;;;;;;;22.89;63.85;95468.03;5036778;28;20224;-69
2021/09/09 11:42:12;;;;;;;6.27;4.47;;;;;;;22.98;63.70;95463.75;5033219;28;20300;-70